sensor_id;sensor_type;location;lat;lon;timestamp;P1;durP1;ratioP1;P2;durP2;ratioP2
64244;SDS011;50584;29.058;-110.966;2023-02-28T00:00:21;2.70;;;0.80;;
64244;SDS011;50584;29.058;-110.966;2023-02-28T00:02:47;0.68;;;0.60;;
64244;SDS011;50584;29.058;-110.966;2023-02-28T00:05:14;2.50;;;1.23;;
64244;SDS011;50584;29.058;-110.966;2023-02-28T00:07:40;2.08;;;1.00;;
64244;SDS011;50584;29.058;-110.966;2023-02-28T00:10:09;0.90;;;0.90;;
64244;SDS011;50584;29.058;-110.966;2023-02-28T00:12:35;8.65;;;1.30;;
64244;SDS011;50584;29.058;-110.966;2023-02-28T00:15:02;1.17;;;1.17;;
64244;SDS011;50584;29.058;-110.966;2023-02-28T00:17:30;3.38;;;1.17;;
64244;SDS011;50584;29.058;-110.966;2023-02-28T00:19:57;1.80;;;1.10;;
64244;SDS011;50584;29.058;-110.966;2023-02-28T00:22:29;1.08;;;1.00;;
64244;SDS011;50584;29.058;-110.966;2023-02-28T00:24:55;1.13;;;1.13;;
64244;SDS011;50584;29.058;-110.966;2023-02-28T00:27:21;1.65;;;1.30;;
64244;SDS011;50584;29.058;-110.966;2023-02-28T00:29:47;5.55;;;1.30;;
64244;SDS011;50584;29.058;-110.966;2023-02-28T00:32:12;4.20;;;1.40;;
64244;SDS011;50584;29.058;-110.966;2023-02-28T00:34:38;2.67;;;1.35;;
64244;SDS011;50584;29.058;-110.966;2023-02-28T00:37:07;3.70;;;1.50;;
64244;SDS011;50584;29.058;-110.966;2023-02-28T00:39:35;6.22;;;1.33;;
64244;SDS011;50584;29.058;-110.966;2023-02-28T00:42:01;4.60;;;1.27;;
64244;SDS011;50584;29.058;-110.966;2023-02-28T00:44:28;1.60;;;0.90;;
64244;SDS011;50584;29.058;-110.966;2023-02-28T00:46:53;0.90;;;0.90;;
64244;SDS011;50584;29.058;-110.966;2023-02-28T00:49:20;2.25;;;1.10;;
64244;SDS011;50584;29.058;-110.966;2023-02-28T00:51:46;1.65;;;1.10;;
64244;SDS011;50584;29.058;-110.966;2023-02-28T00:54:12;3.60;;;0.98;;
64244;SDS011;50584;29.058;-110.966;2023-02-28T00:56:38;3.72;;;0.95;;
64244;SDS011;50584;29.058;-110.966;2023-02-28T00:59:04;1.52;;;1.13;;
64244;SDS011;50584;29.058;-110.966;2023-02-28T01:01:30;1.40;;;0.95;;
64244;SDS011;50584;29.058;-110.966;2023-02-28T01:03:56;4.85;;;1.13;;
64244;SDS011;50584;29.058;-110.966;2023-02-28T01:06:22;3.10;;;1.15;;
64244;SDS011;50584;29.058;-110.966;2023-02-28T01:08:47;6.35;;;1.20;;
64244;SDS011;50584;29.058;-110.966;2023-02-28T01:11:15;5.53;;;1.30;;
64244;SDS011;50584;29.058;-110.966;2023-02-28T01:13:41;5.38;;;1.20;;
64244;SDS011;50584;29.058;-110.966;2023-02-28T01:16:07;1.05;;;1.05;;
64244;SDS011;50584;29.058;-110.966;2023-02-28T01:18:33;8.55;;;1.25;;
64244;SDS011;50584;29.058;-110.966;2023-02-28T01:21:03;1.40;;;1.30;;
64244;SDS011;50584;29.058;-110.966;2023-02-28T01:23:28;4.43;;;1.50;;
64244;SDS011;50584;29.058;-110.966;2023-02-28T01:25:54;4.85;;;1.92;;
64244;SDS011;50584;29.058;-110.966;2023-02-28T01:28:20;10.30;;;2.42;;
64244;SDS011;50584;29.058;-110.966;2023-02-28T01:30:49;3.53;;;2.08;;
64244;SDS011;50584;29.058;-110.966;2023-02-28T01:33:15;16.65;;;2.50;;
64244;SDS011;50584;29.058;-110.966;2023-02-28T01:35:44;18.63;;;2.78;;
64244;SDS011;50584;29.058;-110.966;2023-02-28T01:38:10;3.63;;;2.08;;
64244;SDS011;50584;29.058;-110.966;2023-02-28T01:40:36;18.90;;;2.75;;
64244;SDS011;50584;29.058;-110.966;2023-02-28T01:43:02;8.13;;;2.17;;
64244;SDS011;50584;29.058;-110.966;2023-02-28T01:45:28;23.88;;;2.85;;
64244;SDS011;50584;29.058;-110.966;2023-02-28T01:47:58;9.45;;;2.70;;
64244;SDS011;50584;29.058;-110.966;2023-02-28T01:50:28;13.00;;;3.40;;
64244;SDS011;50584;29.058;-110.966;2023-02-28T01:52:56;18.77;;;2.63;;
64244;SDS011;50584;29.058;-110.966;2023-02-28T01:55:23;7.75;;;2.75;;
64244;SDS011;50584;29.058;-110.966;2023-02-28T01:57:55;16.10;;;2.78;;
64244;SDS011;50584;29.058;-110.966;2023-02-28T02:00:22;8.90;;;3.83;;
64244;SDS011;50584;29.058;-110.966;2023-02-28T02:02:49;52.10;;;21.77;;
64244;SDS011;50584;29.058;-110.966;2023-02-28T02:07:42;7.57;;;2.15;;
64244;SDS011;50584;29.058;-110.966;2023-02-28T02:10:13;3.38;;;2.50;;
64244;SDS011;50584;29.058;-110.966;2023-02-28T02:17:52;5.22;;;3.25;;
64244;SDS011;50584;29.058;-110.966;2023-02-28T02:23:02;5.00;;;1.65;;
64244;SDS011;50584;29.058;-110.966;2023-02-28T02:28:19;6.78;;;2.35;;
64244;SDS011;50584;29.058;-110.966;2023-02-28T02:41:25;4.53;;;1.60;;
64244;SDS011;50584;29.058;-110.966;2023-02-28T02:46:25;2.45;;;1.70;;
64244;SDS011;50584;29.058;-110.966;2023-02-28T02:48:53;3.20;;;1.90;;
64244;SDS011;50584;29.058;-110.966;2023-02-28T02:51:20;5.47;;;2.30;;
64244;SDS011;50584;29.058;-110.966;2023-02-28T02:53:49;9.55;;;3.22;;
64244;SDS011;50584;29.058;-110.966;2023-02-28T02:56:19;4.55;;;1.50;;
64244;SDS011;50584;29.058;-110.966;2023-02-28T02:58:47;6.57;;;2.20;;
64244;SDS011;50584;29.058;-110.966;2023-02-28T03:01:15;11.43;;;2.10;;
64244;SDS011;50584;29.058;-110.966;2023-02-28T03:03:56;3.08;;;2.13;;
64244;SDS011;50584;29.058;-110.966;2023-02-28T03:06:22;4.40;;;1.70;;
64244;SDS011;50584;29.058;-110.966;2023-02-28T03:08:48;10.32;;;2.00;;
64244;SDS011;50584;29.058;-110.966;2023-02-28T03:11:14;5.28;;;2.17;;
64244;SDS011;50584;29.058;-110.966;2023-02-28T03:21:06;53.42;;;22.08;;
64244;SDS011;50584;29.058;-110.966;2023-02-28T03:26:19;125.15;;;46.63;;
64244;SDS011;50584;29.058;-110.966;2023-02-28T03:31:38;19.02;;;5.65;;
64244;SDS011;50584;29.058;-110.966;2023-02-28T03:34:10;38.78;;;15.13;;
64244;SDS011;50584;29.058;-110.966;2023-02-28T03:36:57;33.50;;;15.23;;
64244;SDS011;50584;29.058;-110.966;2023-02-28T03:39:47;70.53;;;26.77;;
64244;SDS011;50584;29.058;-110.966;2023-02-28T03:42:23;44.95;;;19.45;;
64244;SDS011;50584;29.058;-110.966;2023-02-28T03:44:51;51.25;;;21.75;;
64244;SDS011;50584;29.058;-110.966;2023-02-28T03:47:54;44.75;;;20.17;;
64244;SDS011;50584;29.058;-110.966;2023-02-28T03:50:13;36.65;;;15.50;;
64244;SDS011;50584;29.058;-110.966;2023-02-28T03:52:42;6.20;;;1.98;;
64244;SDS011;50584;29.058;-110.966;2023-02-28T03:55:10;10.90;;;4.53;;
64244;SDS011;50584;29.058;-110.966;2023-02-28T04:00:07;7.97;;;2.03;;
64244;SDS011;50584;29.058;-110.966;2023-02-28T04:02:34;9.15;;;2.30;;
64244;SDS011;50584;29.058;-110.966;2023-02-28T04:05:00;4.40;;;1.63;;
64244;SDS011;50584;29.058;-110.966;2023-02-28T04:07:28;4.80;;;1.60;;
64244;SDS011;50584;29.058;-110.966;2023-02-28T04:09:54;6.43;;;2.03;;
64244;SDS011;50584;29.058;-110.966;2023-02-28T04:12:20;3.17;;;1.65;;
64244;SDS011;50584;29.058;-110.966;2023-02-28T04:14:48;7.43;;;1.88;;
64244;SDS011;50584;29.058;-110.966;2023-02-28T04:17:14;4.53;;;2.67;;
64244;SDS011;50584;29.058;-110.966;2023-02-28T04:19:40;8.38;;;1.85;;
64244;SDS011;50584;29.058;-110.966;2023-02-28T04:22:06;8.02;;;2.20;;
64244;SDS011;50584;29.058;-110.966;2023-02-28T04:24:31;10.43;;;3.00;;
64244;SDS011;50584;29.058;-110.966;2023-02-28T04:26:57;12.95;;;4.95;;
64244;SDS011;50584;29.058;-110.966;2023-02-28T04:29:27;20.85;;;6.95;;
64244;SDS011;50584;29.058;-110.966;2023-02-28T04:31:54;7.45;;;3.75;;
64244;SDS011;50584;29.058;-110.966;2023-02-28T04:34:20;12.75;;;3.85;;
64244;SDS011;50584;29.058;-110.966;2023-02-28T04:36:46;5.63;;;2.45;;
64244;SDS011;50584;29.058;-110.966;2023-02-28T04:39:14;8.20;;;3.45;;
64244;SDS011;50584;29.058;-110.966;2023-02-28T04:41:40;6.07;;;2.95;;
64244;SDS011;50584;29.058;-110.966;2023-02-28T04:44:06;11.07;;;3.20;;
64244;SDS011;50584;29.058;-110.966;2023-02-28T04:46:32;6.18;;;2.45;;
64244;SDS011;50584;29.058;-110.966;2023-02-28T04:48:58;4.88;;;2.78;;
64244;SDS011;50584;29.058;-110.966;2023-02-28T04:51:24;1.20;;;1.10;;
64244;SDS011;50584;29.058;-110.966;2023-02-28T04:53:50;2.00;;;1.80;;
64244;SDS011;50584;29.058;-110.966;2023-02-28T04:56:16;3.95;;;1.95;;
64244;SDS011;50584;29.058;-110.966;2023-02-28T04:58:42;1.88;;;1.02;;
64244;SDS011;50584;29.058;-110.966;2023-02-28T05:01:16;1.40;;;1.30;;
64244;SDS011;50584;29.058;-110.966;2023-02-28T05:03:43;3.75;;;1.58;;
64244;SDS011;50584;29.058;-110.966;2023-02-28T05:06:09;3.22;;;2.08;;
64244;SDS011;50584;29.058;-110.966;2023-02-28T05:08:35;6.28;;;3.00;;
64244;SDS011;50584;29.058;-110.966;2023-02-28T05:11:01;3.92;;;2.70;;
64244;SDS011;50584;29.058;-110.966;2023-02-28T05:13:27;2.35;;;2.15;;
64244;SDS011;50584;29.058;-110.966;2023-02-28T05:15:53;1.83;;;1.67;;
64244;SDS011;50584;29.058;-110.966;2023-02-28T05:18:19;5.78;;;3.50;;
64244;SDS011;50584;29.058;-110.966;2023-02-28T05:20:45;11.30;;;6.85;;
64244;SDS011;50584;29.058;-110.966;2023-02-28T05:23:11;6.82;;;4.22;;
64244;SDS011;50584;29.058;-110.966;2023-02-28T05:25:37;6.07;;;4.15;;
64244;SDS011;50584;29.058;-110.966;2023-02-28T05:28:02;2.83;;;1.75;;
64244;SDS011;50584;29.058;-110.966;2023-02-28T05:30:28;1.40;;;1.30;;
64244;SDS011;50584;29.058;-110.966;2023-02-28T05:32:55;4.22;;;1.90;;
64244;SDS011;50584;29.058;-110.966;2023-02-28T05:35:21;7.30;;;2.08;;
64244;SDS011;50584;29.058;-110.966;2023-02-28T05:37:46;12.77;;;3.95;;
64244;SDS011;50584;29.058;-110.966;2023-02-28T05:40:12;5.47;;;3.38;;
64244;SDS011;50584;29.058;-110.966;2023-02-28T05:42:38;9.43;;;3.95;;
64244;SDS011;50584;29.058;-110.966;2023-02-28T05:45:04;16.63;;;4.10;;
64244;SDS011;50584;29.058;-110.966;2023-02-28T05:47:30;17.10;;;5.38;;
64244;SDS011;50584;29.058;-110.966;2023-02-28T05:49:56;6.97;;;3.35;;
64244;SDS011;50584;29.058;-110.966;2023-02-28T05:52:22;21.65;;;4.43;;
64244;SDS011;50584;29.058;-110.966;2023-02-28T05:54:48;15.30;;;3.78;;
64244;SDS011;50584;29.058;-110.966;2023-02-28T05:57:14;5.35;;;2.78;;
64244;SDS011;50584;29.058;-110.966;2023-02-28T05:59:40;13.65;;;3.97;;
64244;SDS011;50584;29.058;-110.966;2023-02-28T06:02:06;12.20;;;5.55;;
64244;SDS011;50584;29.058;-110.966;2023-02-28T06:04:36;10.35;;;3.88;;
64244;SDS011;50584;29.058;-110.966;2023-02-28T06:07:02;22.65;;;5.88;;
64244;SDS011;50584;29.058;-110.966;2023-02-28T06:09:28;20.38;;;4.85;;
64244;SDS011;50584;29.058;-110.966;2023-02-28T06:11:54;15.23;;;4.30;;
64244;SDS011;50584;29.058;-110.966;2023-02-28T06:14:20;10.77;;;3.80;;
64244;SDS011;50584;29.058;-110.966;2023-02-28T06:16:46;16.55;;;6.38;;
64244;SDS011;50584;29.058;-110.966;2023-02-28T06:19:12;7.30;;;4.60;;
64244;SDS011;50584;29.058;-110.966;2023-02-28T06:21:38;10.43;;;6.03;;
64244;SDS011;50584;29.058;-110.966;2023-02-28T06:24:05;13.25;;;3.40;;
64244;SDS011;50584;29.058;-110.966;2023-02-28T06:26:30;3.47;;;2.75;;
64244;SDS011;50584;29.058;-110.966;2023-02-28T06:28:56;6.93;;;2.10;;
64244;SDS011;50584;29.058;-110.966;2023-02-28T06:31:22;12.00;;;3.65;;
64244;SDS011;50584;29.058;-110.966;2023-02-28T06:33:48;10.57;;;4.32;;
64244;SDS011;50584;29.058;-110.966;2023-02-28T06:36:14;14.13;;;4.10;;
64244;SDS011;50584;29.058;-110.966;2023-02-28T06:38:40;15.25;;;4.80;;
64244;SDS011;50584;29.058;-110.966;2023-02-28T06:41:06;9.55;;;5.00;;
64244;SDS011;50584;29.058;-110.966;2023-02-28T06:43:37;10.52;;;4.95;;
64244;SDS011;50584;29.058;-110.966;2023-02-28T06:46:04;22.02;;;4.72;;
64244;SDS011;50584;29.058;-110.966;2023-02-28T06:48:30;5.07;;;3.80;;
64244;SDS011;50584;29.058;-110.966;2023-02-28T06:51:03;6.90;;;3.28;;
64244;SDS011;50584;29.058;-110.966;2023-02-28T06:53:29;3.10;;;2.70;;
64244;SDS011;50584;29.058;-110.966;2023-02-28T06:55:55;3.80;;;2.83;;
64244;SDS011;50584;29.058;-110.966;2023-02-28T06:58:21;5.65;;;2.20;;
64244;SDS011;50584;29.058;-110.966;2023-02-28T07:00:49;4.57;;;1.83;;
64244;SDS011;50584;29.058;-110.966;2023-02-28T07:03:15;6.10;;;1.90;;
64244;SDS011;50584;29.058;-110.966;2023-02-28T07:05:42;6.05;;;3.58;;
64244;SDS011;50584;29.058;-110.966;2023-02-28T07:08:08;8.15;;;1.60;;
64244;SDS011;50584;29.058;-110.966;2023-02-28T07:10:34;3.42;;;1.80;;
64244;SDS011;50584;29.058;-110.966;2023-02-28T07:13:02;9.15;;;5.47;;
64244;SDS011;50584;29.058;-110.966;2023-02-28T07:15:28;17.67;;;3.55;;
64244;SDS011;50584;29.058;-110.966;2023-02-28T07:17:54;23.10;;;5.00;;
64244;SDS011;50584;29.058;-110.966;2023-02-28T07:20:21;33.80;;;8.10;;
64244;SDS011;50584;29.058;-110.966;2023-02-28T07:22:48;16.35;;;6.53;;
64244;SDS011;50584;29.058;-110.966;2023-02-28T07:25:20;18.45;;;7.55;;
64244;SDS011;50584;29.058;-110.966;2023-02-28T07:27:46;21.70;;;6.80;;
64244;SDS011;50584;29.058;-110.966;2023-02-28T07:30:12;21.92;;;7.38;;
64244;SDS011;50584;29.058;-110.966;2023-02-28T07:32:38;21.77;;;8.38;;
64244;SDS011;50584;29.058;-110.966;2023-02-28T07:35:04;23.83;;;8.43;;
64244;SDS011;50584;29.058;-110.966;2023-02-28T07:37:30;23.90;;;8.02;;
64244;SDS011;50584;29.058;-110.966;2023-02-28T07:42:27;29.27;;;6.78;;
64244;SDS011;50584;29.058;-110.966;2023-02-28T07:44:52;16.45;;;6.78;;
64244;SDS011;50584;29.058;-110.966;2023-02-28T07:47:18;17.63;;;5.63;;
64244;SDS011;50584;29.058;-110.966;2023-02-28T07:49:44;22.38;;;5.75;;
64244;SDS011;50584;29.058;-110.966;2023-02-28T07:52:10;18.80;;;6.40;;
64244;SDS011;50584;29.058;-110.966;2023-02-28T07:54:36;14.25;;;5.35;;
64244;SDS011;50584;29.058;-110.966;2023-02-28T07:57:02;12.57;;;5.90;;
64244;SDS011;50584;29.058;-110.966;2023-02-28T07:59:28;23.20;;;4.90;;
64244;SDS011;50584;29.058;-110.966;2023-02-28T08:01:53;14.63;;;4.85;;
64244;SDS011;50584;29.058;-110.966;2023-02-28T08:04:19;15.30;;;4.30;;
64244;SDS011;50584;29.058;-110.966;2023-02-28T08:06:45;15.10;;;3.97;;
64244;SDS011;50584;29.058;-110.966;2023-02-28T08:09:11;8.27;;;4.15;;
64244;SDS011;50584;29.058;-110.966;2023-02-28T08:11:37;9.60;;;3.85;;
64244;SDS011;50584;29.058;-110.966;2023-02-28T08:14:03;12.07;;;4.45;;
64244;SDS011;50584;29.058;-110.966;2023-02-28T08:16:29;14.10;;;4.20;;
64244;SDS011;50584;29.058;-110.966;2023-02-28T08:18:54;10.00;;;4.38;;
64244;SDS011;50584;29.058;-110.966;2023-02-28T08:21:20;14.00;;;4.95;;
64244;SDS011;50584;29.058;-110.966;2023-02-28T08:23:50;9.52;;;4.50;;
64244;SDS011;50584;29.058;-110.966;2023-02-28T08:26:16;17.08;;;4.60;;
64244;SDS011;50584;29.058;-110.966;2023-02-28T08:28:42;8.43;;;3.67;;
64244;SDS011;50584;29.058;-110.966;2023-02-28T08:31:08;8.50;;;3.13;;
64244;SDS011;50584;29.058;-110.966;2023-02-28T08:33:35;6.18;;;4.32;;
64244;SDS011;50584;29.058;-110.966;2023-02-28T08:36:01;8.73;;;4.00;;
64244;SDS011;50584;29.058;-110.966;2023-02-28T08:38:27;12.75;;;3.35;;
64244;SDS011;50584;29.058;-110.966;2023-02-28T08:40:59;8.57;;;2.88;;
64244;SDS011;50584;29.058;-110.966;2023-02-28T08:43:26;7.13;;;3.33;;
64244;SDS011;50584;29.058;-110.966;2023-02-28T08:45:54;3.33;;;2.53;;
64244;SDS011;50584;29.058;-110.966;2023-02-28T08:48:24;3.55;;;3.25;;
64244;SDS011;50584;29.058;-110.966;2023-02-28T08:53:21;4.47;;;2.35;;
64244;SDS011;50584;29.058;-110.966;2023-02-28T08:55:47;5.30;;;3.30;;
64244;SDS011;50584;29.058;-110.966;2023-02-28T08:58:20;5.72;;;2.90;;
64244;SDS011;50584;29.058;-110.966;2023-02-28T09:00:46;2.80;;;2.50;;
64244;SDS011;50584;29.058;-110.966;2023-02-28T09:03:11;6.28;;;2.63;;
64244;SDS011;50584;29.058;-110.966;2023-02-28T09:05:37;12.18;;;2.90;;
64244;SDS011;50584;29.058;-110.966;2023-02-28T09:08:03;10.93;;;3.10;;
64244;SDS011;50584;29.058;-110.966;2023-02-28T09:10:29;3.80;;;2.90;;
64244;SDS011;50584;29.058;-110.966;2023-02-28T09:12:55;3.80;;;2.50;;
64244;SDS011;50584;29.058;-110.966;2023-02-28T09:15:20;8.15;;;2.60;;
64244;SDS011;50584;29.058;-110.966;2023-02-28T09:17:46;3.20;;;2.90;;
64244;SDS011;50584;29.058;-110.966;2023-02-28T09:20:12;3.63;;;2.45;;
64244;SDS011;50584;29.058;-110.966;2023-02-28T09:22:38;5.03;;;2.45;;
64244;SDS011;50584;29.058;-110.966;2023-02-28T09:25:04;3.53;;;2.78;;
64244;SDS011;50584;29.058;-110.966;2023-02-28T09:27:30;3.63;;;2.03;;
64244;SDS011;50584;29.058;-110.966;2023-02-28T09:29:56;2.55;;;2.35;;
64244;SDS011;50584;29.058;-110.966;2023-02-28T09:32:22;2.97;;;2.53;;
64244;SDS011;50584;29.058;-110.966;2023-02-28T09:34:47;2.00;;;1.90;;
64244;SDS011;50584;29.058;-110.966;2023-02-28T09:37:13;2.10;;;2.00;;
64244;SDS011;50584;29.058;-110.966;2023-02-28T09:39:39;2.40;;;1.90;;
64244;SDS011;50584;29.058;-110.966;2023-02-28T09:44:43;3.13;;;2.10;;
64244;SDS011;50584;29.058;-110.966;2023-02-28T09:49:37;2.00;;;1.90;;
64244;SDS011;50584;29.058;-110.966;2023-02-28T09:52:05;2.47;;;2.28;;
64244;SDS011;50584;29.058;-110.966;2023-02-28T09:54:35;4.70;;;1.52;;
64244;SDS011;50584;29.058;-110.966;2023-02-28T09:57:04;2.78;;;2.40;;
64244;SDS011;50584;29.058;-110.966;2023-02-28T10:02:02;2.08;;;1.85;;
64244;SDS011;50584;29.058;-110.966;2023-02-28T10:07:16;1.85;;;1.73;;
64244;SDS011;50584;29.058;-110.966;2023-02-28T10:09:42;4.13;;;1.83;;
64244;SDS011;50584;29.058;-110.966;2023-02-28T10:12:10;3.30;;;1.80;;
64244;SDS011;50584;29.058;-110.966;2023-02-28T10:14:36;2.42;;;2.03;;
64244;SDS011;50584;29.058;-110.966;2023-02-28T10:17:12;2.95;;;1.98;;
64244;SDS011;50584;29.058;-110.966;2023-02-28T10:22:08;5.32;;;2.58;;
64244;SDS011;50584;29.058;-110.966;2023-02-28T10:24:40;3.97;;;1.73;;
64244;SDS011;50584;29.058;-110.966;2023-02-28T10:27:16;2.05;;;1.75;;
64244;SDS011;50584;29.058;-110.966;2023-02-28T10:29:44;5.65;;;1.95;;
64244;SDS011;50584;29.058;-110.966;2023-02-28T10:32:10;1.77;;;1.67;;
64244;SDS011;50584;29.058;-110.966;2023-02-28T10:34:36;2.80;;;1.80;;
64244;SDS011;50584;29.058;-110.966;2023-02-28T10:37:02;3.50;;;2.00;;
64244;SDS011;50584;29.058;-110.966;2023-02-28T10:42:03;2.78;;;1.95;;
64244;SDS011;50584;29.058;-110.966;2023-02-28T10:44:28;2.85;;;2.30;;
64244;SDS011;50584;29.058;-110.966;2023-02-28T10:46:54;8.80;;;3.10;;
64244;SDS011;50584;29.058;-110.966;2023-02-28T10:49:28;5.35;;;3.05;;
64244;SDS011;50584;29.058;-110.966;2023-02-28T10:51:59;4.40;;;2.80;;
64244;SDS011;50584;29.058;-110.966;2023-02-28T10:54:32;2.42;;;2.22;;
64244;SDS011;50584;29.058;-110.966;2023-02-28T10:59:41;6.60;;;2.28;;
64244;SDS011;50584;29.058;-110.966;2023-02-28T11:04:51;4.30;;;2.60;;
64244;SDS011;50584;29.058;-110.966;2023-02-28T11:07:19;9.18;;;2.30;;
64244;SDS011;50584;29.058;-110.966;2023-02-28T11:09:49;3.55;;;2.20;;
64244;SDS011;50584;29.058;-110.966;2023-02-28T11:15:04;2.53;;;1.63;;
64244;SDS011;50584;29.058;-110.966;2023-02-28T11:17:31;2.35;;;1.98;;
64244;SDS011;50584;29.058;-110.966;2023-02-28T11:20:18;2.60;;;1.88;;
64244;SDS011;50584;29.058;-110.966;2023-02-28T11:22:45;1.67;;;1.48;;
64244;SDS011;50584;29.058;-110.966;2023-02-28T11:25:21;3.90;;;1.90;;
64244;SDS011;50584;29.058;-110.966;2023-02-28T11:27:49;1.85;;;1.75;;
64244;SDS011;50584;29.058;-110.966;2023-02-28T11:30:26;4.45;;;1.60;;
64244;SDS011;50584;29.058;-110.966;2023-02-28T11:32:52;8.10;;;1.50;;
64244;SDS011;50584;29.058;-110.966;2023-02-28T11:35:26;2.08;;;1.42;;
64244;SDS011;50584;29.058;-110.966;2023-02-28T11:37:52;1.65;;;1.55;;
64244;SDS011;50584;29.058;-110.966;2023-02-28T11:40:21;2.25;;;1.60;;
64244;SDS011;50584;29.058;-110.966;2023-02-28T11:42:55;1.90;;;1.55;;
64244;SDS011;50584;29.058;-110.966;2023-02-28T11:50:42;1.60;;;1.50;;
64244;SDS011;50584;29.058;-110.966;2023-02-28T11:55:49;3.05;;;1.55;;
64244;SDS011;50584;29.058;-110.966;2023-02-28T12:05:57;1.88;;;1.60;;
64244;SDS011;50584;29.058;-110.966;2023-02-28T12:11:22;1.60;;;1.48;;
64244;SDS011;50584;29.058;-110.966;2023-02-28T12:13:56;3.22;;;1.52;;
64244;SDS011;50584;29.058;-110.966;2023-02-28T12:19:07;4.30;;;2.47;;
64244;SDS011;50584;29.058;-110.966;2023-02-28T12:21:40;3.95;;;2.00;;
64244;SDS011;50584;29.058;-110.966;2023-02-28T12:26:53;2.38;;;1.92;;
64244;SDS011;50584;29.058;-110.966;2023-02-28T12:32:01;1.85;;;1.75;;
64244;SDS011;50584;29.058;-110.966;2023-02-28T12:34:37;3.60;;;2.10;;
64244;SDS011;50584;29.058;-110.966;2023-02-28T12:37:05;5.32;;;2.03;;
64244;SDS011;50584;29.058;-110.966;2023-02-28T12:39:34;2.17;;;2.05;;
64244;SDS011;50584;29.058;-110.966;2023-02-28T12:42:03;3.95;;;2.15;;
64244;SDS011;50584;29.058;-110.966;2023-02-28T12:47:05;7.13;;;2.22;;
64244;SDS011;50584;29.058;-110.966;2023-02-28T12:49:37;5.95;;;2.17;;
64244;SDS011;50584;29.058;-110.966;2023-02-28T12:52:04;11.43;;;2.40;;
64244;SDS011;50584;29.058;-110.966;2023-02-28T12:54:35;8.13;;;2.47;;
64244;SDS011;50584;29.058;-110.966;2023-02-28T12:59:53;6.82;;;2.30;;
64244;SDS011;50584;29.058;-110.966;2023-02-28T13:10:05;5.05;;;2.03;;
64244;SDS011;50584;29.058;-110.966;2023-02-28T13:12:33;3.67;;;2.17;;
64244;SDS011;50584;29.058;-110.966;2023-02-28T13:15:18;4.03;;;2.00;;
64244;SDS011;50584;29.058;-110.966;2023-02-28T13:17:54;1.85;;;1.70;;
64244;SDS011;50584;29.058;-110.966;2023-02-28T13:20:24;5.45;;;1.88;;
64244;SDS011;50584;29.058;-110.966;2023-02-28T13:22:51;1.40;;;1.30;;
64244;SDS011;50584;29.058;-110.966;2023-02-28T13:28:00;3.45;;;1.38;;
64244;SDS011;50584;29.058;-110.966;2023-02-28T13:35:45;1.85;;;1.75;;
64244;SDS011;50584;29.058;-110.966;2023-02-28T13:38:44;6.20;;;1.70;;
64244;SDS011;50584;29.058;-110.966;2023-02-28T13:41:48;4.03;;;2.20;;
64244;SDS011;50584;29.058;-110.966;2023-02-28T13:46:38;10.77;;;5.63;;
64244;SDS011;50584;29.058;-110.966;2023-02-28T14:07:08;42.15;;;17.08;;
64244;SDS011;50584;29.058;-110.966;2023-02-28T14:09:37;21.85;;;10.13;;
64244;SDS011;50584;29.058;-110.966;2023-02-28T14:14:56;18.55;;;10.90;;
64244;SDS011;50584;29.058;-110.966;2023-02-28T14:17:22;41.47;;;19.25;;
64244;SDS011;50584;29.058;-110.966;2023-02-28T14:19:48;29.10;;;14.57;;
64244;SDS011;50584;29.058;-110.966;2023-02-28T14:38:27;7.20;;;3.50;;
64244;SDS011;50584;29.058;-110.966;2023-02-28T14:40:56;20.88;;;10.32;;
64244;SDS011;50584;29.058;-110.966;2023-02-28T14:43:23;17.30;;;10.07;;
64244;SDS011;50584;29.058;-110.966;2023-02-28T14:45:50;12.82;;;3.95;;
64244;SDS011;50584;29.058;-110.966;2023-02-28T14:48:17;39.10;;;9.35;;
64244;SDS011;50584;29.058;-110.966;2023-02-28T14:50:47;20.65;;;7.10;;
64244;SDS011;50584;29.058;-110.966;2023-02-28T14:53:15;11.00;;;5.43;;
64244;SDS011;50584;29.058;-110.966;2023-02-28T14:55:44;6.72;;;3.90;;
64244;SDS011;50584;29.058;-110.966;2023-02-28T14:58:24;17.30;;;6.50;;
64244;SDS011;50584;29.058;-110.966;2023-02-28T15:00:50;7.82;;;4.30;;
64244;SDS011;50584;29.058;-110.966;2023-02-28T15:03:19;11.68;;;3.10;;
64244;SDS011;50584;29.058;-110.966;2023-02-28T15:05:52;12.98;;;4.05;;
64244;SDS011;50584;29.058;-110.966;2023-02-28T15:08:18;4.13;;;2.80;;
64244;SDS011;50584;29.058;-110.966;2023-02-28T15:10:53;2.63;;;2.33;;
64244;SDS011;50584;29.058;-110.966;2023-02-28T15:13:19;4.75;;;2.63;;
64244;SDS011;50584;29.058;-110.966;2023-02-28T15:20:46;2.92;;;2.10;;
64244;SDS011;50584;29.058;-110.966;2023-02-28T15:23:12;12.48;;;1.95;;
64244;SDS011;50584;29.058;-110.966;2023-02-28T15:25:38;7.70;;;3.20;;
64244;SDS011;50584;29.058;-110.966;2023-02-28T15:28:04;7.53;;;2.45;;
64244;SDS011;50584;29.058;-110.966;2023-02-28T15:30:31;2.78;;;2.47;;
64244;SDS011;50584;29.058;-110.966;2023-02-28T15:33:05;2.53;;;1.40;;
64244;SDS011;50584;29.058;-110.966;2023-02-28T15:35:34;5.82;;;1.70;;
64244;SDS011;50584;29.058;-110.966;2023-02-28T15:38:01;6.70;;;1.92;;
64244;SDS011;50584;29.058;-110.966;2023-02-28T15:40:28;2.47;;;1.75;;
64244;SDS011;50584;29.058;-110.966;2023-02-28T15:43:13;4.57;;;2.28;;
64244;SDS011;50584;29.058;-110.966;2023-02-28T15:48:16;7.30;;;2.83;;
64244;SDS011;50584;29.058;-110.966;2023-02-28T15:53:12;3.95;;;2.60;;
64244;SDS011;50584;29.058;-110.966;2023-02-28T15:55:38;3.63;;;2.33;;
64244;SDS011;50584;29.058;-110.966;2023-02-28T15:58:05;4.15;;;1.85;;
64244;SDS011;50584;29.058;-110.966;2023-02-28T16:00:31;9.57;;;1.75;;
64244;SDS011;50584;29.058;-110.966;2023-02-28T16:03:00;7.93;;;2.17;;
64244;SDS011;50584;29.058;-110.966;2023-02-28T16:05:27;2.38;;;1.70;;
64244;SDS011;50584;29.058;-110.966;2023-02-28T16:07:56;6.85;;;1.90;;
64244;SDS011;50584;29.058;-110.966;2023-02-28T16:10:22;5.82;;;1.98;;
64244;SDS011;50584;29.058;-110.966;2023-02-28T16:12:52;8.27;;;2.45;;
64244;SDS011;50584;29.058;-110.966;2023-02-28T16:15:19;2.58;;;2.08;;
64244;SDS011;50584;29.058;-110.966;2023-02-28T16:17:46;4.18;;;2.38;;
64244;SDS011;50584;29.058;-110.966;2023-02-28T16:20:33;4.13;;;2.03;;
64244;SDS011;50584;29.058;-110.966;2023-02-28T16:22:58;9.68;;;2.20;;
64244;SDS011;50584;29.058;-110.966;2023-02-28T16:25:40;3.40;;;1.70;;
64244;SDS011;50584;29.058;-110.966;2023-02-28T16:28:12;1.90;;;1.80;;
64244;SDS011;50584;29.058;-110.966;2023-02-28T16:30:40;8.07;;;1.83;;
64244;SDS011;50584;29.058;-110.966;2023-02-28T16:33:07;1.85;;;1.75;;
64244;SDS011;50584;29.058;-110.966;2023-02-28T16:35:33;2.10;;;2.00;;
64244;SDS011;50584;29.058;-110.966;2023-02-28T16:37:58;9.35;;;1.85;;
64244;SDS011;50584;29.058;-110.966;2023-02-28T16:40:25;1.98;;;1.73;;
64244;SDS011;50584;29.058;-110.966;2023-02-28T16:42:52;2.67;;;1.75;;
64244;SDS011;50584;29.058;-110.966;2023-02-28T16:45:23;3.05;;;1.77;;
64244;SDS011;50584;29.058;-110.966;2023-02-28T16:47:49;3.22;;;1.50;;
64244;SDS011;50584;29.058;-110.966;2023-02-28T16:50:20;9.35;;;2.17;;
64244;SDS011;50584;29.058;-110.966;2023-02-28T16:52:46;11.52;;;2.60;;
64244;SDS011;50584;29.058;-110.966;2023-02-28T16:55:12;7.78;;;2.35;;